createdAt,value
2023-02-20T00:04:07.610Z,66.57
2023-02-20T00:09:09.256Z,66.46
2023-02-20T00:14:10.922Z,67.25
2023-02-20T00:19:12.581Z,67.03
2023-02-20T00:24:15.542Z,67.64
2023-02-20T00:29:18.968Z,67.15
2023-02-20T00:34:21.976Z,68.16
2023-02-20T00:39:24.063Z,68.06
2023-02-20T00:44:26.202Z,68.29
2023-02-20T00:49:27.846Z,67.95
2023-02-20T00:54:29.482Z,67.81
2023-02-20T00:59:31.121Z,67.60
2023-02-20T01:04:32.992Z,67.65
2023-02-20T01:09:35.006Z,68.32
2023-02-20T01:14:37.133Z,68.01
2023-02-20T01:19:38.930Z,68.81
2023-02-20T01:24:41.890Z,68.68
2023-02-20T01:29:43.630Z,68.51
2023-02-20T01:34:45.357Z,68.58
2023-02-20T01:39:48.432Z,69.37
2023-02-20T01:44:50.463Z,69.98
2023-02-20T01:50:07.241Z,70.12
2023-02-20T01:55:17.564Z,70.81
2023-02-20T02:00:21.820Z,70.07
2023-02-20T02:05:24.962Z,71.73
2023-02-20T02:11:14.278Z,72.55
2023-02-20T02:16:31.502Z,74.09
2023-02-20T02:22:26.931Z,73.64
2023-02-20T02:27:31.049Z,74.50
2023-02-20T02:32:56.046Z,75.10
2023-02-20T02:38:33.334Z,74.52
2023-02-20T02:44:09.738Z,74.83
2023-02-20T02:49:30.271Z,75.14
2023-02-20T02:54:31.965Z,74.54
2023-02-20T02:59:34.384Z,75.46
2023-02-20T03:04:38.341Z,75.00
2023-02-20T03:09:48.515Z,75.33
2023-02-20T03:15:08.496Z,75.53
2023-02-20T03:20:14.012Z,75.58
2023-02-20T03:25:26.686Z,76.65
2023-02-20T03:30:49.942Z,76.75
2023-02-20T03:36:12.685Z,76.98
2023-02-20T03:41:35.085Z,77.12
2023-02-20T03:46:39.352Z,77.50
2023-02-20T03:51:42.195Z,78.02
2023-02-20T03:56:53.220Z,78.57
2023-02-20T04:01:59.607Z,78.94
2023-02-20T04:07:05.608Z,79.78
2023-02-20T04:12:15.025Z,79.86
2023-02-20T04:17:22.230Z,78.87
2023-02-20T04:22:30.539Z,79.39
2023-02-20T04:27:32.658Z,78.82
2023-02-20T04:32:34.325Z,79.59
2023-02-20T04:37:36.023Z,80.18
2023-02-20T04:42:38.676Z,80.73
2023-02-20T04:47:40.355Z,81.19
2023-02-20T04:52:42.051Z,80.68
2023-02-20T04:57:43.832Z,79.61
2023-02-20T05:02:45.518Z,80.53
2023-02-20T05:07:48.400Z,80.61
2023-02-20T05:19:15.669Z,80.14
2023-02-20T05:24:17.704Z,79.18
2023-02-20T05:29:19.271Z,79.35
2023-02-20T05:34:25.918Z,79.24
2023-02-20T05:39:27.560Z,79.10
2023-02-20T05:44:29.341Z,79.29
2023-02-20T05:49:31.372Z,79.80
2023-02-20T05:54:33.014Z,79.20
2023-02-20T05:59:34.764Z,79.21
2023-02-20T06:04:36.602Z,80.52
2023-02-20T06:09:42.317Z,80.91
2023-02-20T06:14:44.700Z,80.86
2023-02-20T06:19:46.337Z,81.04
2023-02-20T06:24:48.181Z,81.05
2023-02-20T06:29:49.832Z,80.74
2023-02-20T06:34:51.562Z,80.39
2023-02-20T06:39:53.210Z,80.73
2023-02-20T06:44:54.932Z,80.14
2023-02-20T06:49:56.635Z,80.14
2023-02-20T06:54:59.292Z,80.58
2023-02-20T07:00:01.018Z,82.20
2023-02-20T07:05:06.214Z,82.15
2023-02-20T07:10:08.434Z,81.13
2023-02-20T07:15:11.992Z,81.37
2023-02-20T07:20:15.128Z,81.12
2023-02-20T07:25:16.924Z,80.16
2023-02-20T07:30:18.875Z,80.96
2023-02-20T07:35:20.646Z,81.18
2023-02-20T07:40:22.395Z,83.35
2023-02-20T07:45:24.485Z,84.22
2023-02-20T07:50:26.152Z,86.63
2023-02-20T07:55:27.919Z,85.29
2023-02-20T08:00:29.681Z,86.05
2023-02-20T08:05:40.285Z,85.96
2023-02-20T08:10:50.518Z,85.56
2023-02-20T08:15:54.075Z,84.60
2023-02-20T08:20:55.750Z,85.51
2023-02-20T08:25:57.464Z,84.98
2023-02-20T08:30:59.200Z,86.00
2023-02-20T08:36:01.241Z,86.09
2023-02-20T08:41:07.661Z,86.73
2023-02-20T08:46:09.867Z,85.62
2023-02-20T08:51:12.716Z,85.67
2023-02-20T08:56:18.537Z,84.63
2023-02-20T09:01:20.357Z,83.97
2023-02-20T09:06:24.796Z,82.29
2023-02-20T09:11:26.512Z,80.38
2023-02-20T09:16:28.665Z,77.35
2023-02-20T09:21:30.329Z,75.51
2023-02-20T09:26:32.014Z,76.00
2023-02-20T09:31:33.798Z,72.71
2023-02-20T09:36:35.576Z,72.84
2023-02-20T09:42:07.796Z,69.25
2023-02-20T09:47:18.517Z,68.79
2023-02-20T09:52:20.769Z,68.53
2023-02-20T09:57:27.062Z,69.89
2023-02-20T10:02:40.339Z,73.64
2023-02-20T10:07:42.493Z,73.26
2023-02-20T10:13:05.840Z,71.61
2023-02-20T10:18:49.472Z,72.05
2023-02-20T10:24:05.568Z,74.45
2023-02-20T10:29:18.546Z,75.67
2023-02-20T10:35:04.847Z,76.57
2023-02-20T10:40:17.347Z,75.87
2023-02-20T10:45:39.318Z,77.42
2023-02-20T10:50:50.304Z,75.16
2023-02-20T10:56:14.253Z,74.97
2023-02-20T11:01:21.937Z,72.52
2023-02-20T11:06:30.660Z,73.82
2023-02-20T11:11:36.063Z,73.51
2023-02-20T11:16:44.601Z,71.95
2023-02-20T11:21:48.913Z,72.13
2023-02-20T11:26:56.198Z,73.25
2023-02-20T11:32:20.448Z,66.72
2023-02-20T11:37:22.204Z,70.15
2023-02-20T11:42:23.973Z,69.09
2023-02-20T11:47:29.633Z,71.14
2023-02-20T11:52:31.348Z,71.22
2023-02-20T11:57:33.152Z,68.42
2023-02-20T12:02:35.256Z,64.45
2023-02-20T12:07:47.900Z,65.18
2023-02-20T12:12:50.386Z,64.17
2023-02-20T12:18:04.298Z,61.75
2023-02-20T12:23:18.682Z,62.79
2023-02-20T12:28:29.503Z,63.85
2023-02-20T12:33:41.196Z,63.04
2023-02-20T12:38:55.132Z,62.89
2023-02-20T12:44:13.658Z,63.99
2023-02-20T12:49:43.434Z,61.79
2023-02-20T12:55:00.458Z,60.82
2023-02-20T13:00:15.824Z,57.45
2023-02-20T13:05:23.421Z,58.84
2023-02-20T13:10:32.721Z,56.26
2023-02-20T13:15:46.891Z,58.74
2023-02-20T13:20:54.098Z,55.18
2023-02-20T13:25:56.542Z,53.78
2023-02-20T13:31:23.984Z,54.04
2023-02-20T13:36:28.757Z,54.98
2023-02-20T13:41:56.300Z,56.34
2023-02-20T13:47:27.356Z,56.32
2023-02-20T13:52:29.825Z,53.66
2023-02-20T13:57:36.234Z,52.87
2023-02-20T14:02:42.010Z,51.66
2023-02-20T14:07:46.592Z,49.77
2023-02-20T14:12:58.229Z,45.67
2023-02-20T14:18:00.212Z,42.40
2023-02-20T14:23:28.152Z,39.50
2023-02-20T14:28:32.492Z,41.54
2023-02-20T14:33:35.224Z,40.28
2023-02-20T14:38:42.550Z,39.36
2023-02-20T14:43:44.413Z,40.26
2023-02-20T14:48:46.194Z,39.02
2023-02-20T14:53:58.357Z,38.73
2023-02-20T14:59:38.818Z,39.58
2023-02-20T15:05:05.554Z,39.35
2023-02-20T15:10:35.245Z,45.39
2023-02-20T15:15:39.635Z,43.49
2023-02-20T15:20:44.176Z,42.39
2023-02-20T15:25:46.153Z,41.83
2023-02-20T15:31:06.698Z,42.47
2023-02-20T15:36:19.004Z,44.32
2023-02-20T15:41:21.814Z,46.45
2023-02-20T15:46:23.644Z,45.25
2023-02-20T15:51:25.812Z,47.77
2023-02-20T15:56:32.383Z,49.91
2023-02-20T16:01:34.217Z,49.56
2023-02-20T16:06:36.699Z,51.98
2023-02-20T16:11:44.082Z,52.25
2023-02-20T16:16:48.034Z,53.65
2023-02-20T16:21:59.263Z,54.18
2023-02-20T16:27:04.398Z,54.65
2023-02-20T16:32:08.039Z,56.02
2023-02-20T16:37:12.370Z,55.66
2023-02-20T16:42:39.367Z,57.35
2023-02-20T16:47:41.721Z,57.72
2023-02-20T16:52:44.726Z,58.56
2023-02-20T16:57:47.014Z,58.61
2023-02-20T17:02:49.215Z,59.48
2023-02-20T17:07:51.327Z,59.48
2023-02-20T17:12:54.252Z,59.75
2023-02-20T17:17:57.476Z,59.37
2023-02-20T17:23:04.933Z,59.89
2023-02-20T17:28:07.685Z,59.91
2023-02-20T17:33:11.099Z,57.02
2023-02-20T17:38:13.199Z,53.98
2023-02-20T17:43:15.520Z,53.47
2023-02-20T17:48:18.241Z,54.12
2023-02-20T17:53:20.578Z,53.89
2023-02-20T17:58:22.810Z,54.17
2023-02-20T18:03:25.318Z,54.03
2023-02-20T18:08:27.943Z,54.22
2023-02-20T18:13:30.332Z,53.81
2023-02-20T18:18:32.895Z,53.07
2023-02-20T18:23:34.781Z,54.35
2023-02-20T18:28:44.899Z,54.81
2023-02-20T18:33:47.955Z,54.49
2023-02-20T18:38:51.916Z,55.20
2023-02-20T18:43:56.203Z,55.92
2023-02-20T18:48:59.829Z,55.49
2023-02-20T18:54:03.146Z,54.95
2023-02-20T18:59:07.511Z,55.47
2023-02-20T19:04:11.803Z,54.32
2023-02-20T19:09:23.856Z,54.35
2023-02-20T19:14:29.099Z,54.10
2023-02-20T19:19:39.560Z,56.24
2023-02-20T19:24:45.422Z,58.51
2023-02-20T19:29:48.296Z,59.47
2023-02-20T19:34:50.867Z,60.10
2023-02-20T19:39:53.478Z,59.93
2023-02-20T19:44:56.802Z,60.50
2023-02-20T19:50:02.360Z,61.21
2023-02-20T19:55:04.595Z,61.25
2023-02-20T20:00:09.779Z,62.03
2023-02-20T20:05:14.408Z,62.38
2023-02-20T20:10:19.732Z,63.08
2023-02-20T20:15:25.311Z,62.79
2023-02-20T20:20:29.531Z,63.44
2023-02-20T20:25:32.188Z,62.85
2023-02-20T20:30:39.589Z,63.04
2023-02-20T20:35:42.428Z,63.65
2023-02-20T20:40:45.083Z,64.13
2023-02-20T20:45:47.610Z,64.54
2023-02-20T20:50:50.919Z,64.64
2023-02-20T20:55:55.149Z,64.78
2023-02-20T21:01:01.180Z,64.91
2023-02-20T21:06:03.364Z,65.19
2023-02-20T21:11:06.236Z,65.02
2023-02-20T21:16:08.624Z,65.29
2023-02-20T21:21:11.349Z,65.41
2023-02-20T21:26:15.471Z,65.70
2023-02-20T21:31:18.530Z,65.42
2023-02-20T21:36:21.713Z,66.18
2023-02-20T21:41:43.240Z,66.00
2023-02-20T21:46:45.097Z,66.50
2023-02-20T21:51:47.822Z,65.94
2023-02-20T21:56:49.673Z,66.38
2023-02-20T22:01:52.528Z,66.31
2023-02-20T22:07:12.671Z,67.03
2023-02-20T22:12:34.822Z,66.78
2023-02-20T22:17:55.516Z,66.07
2023-02-20T22:23:15.938Z,67.00
2023-02-20T22:28:36.479Z,67.09
2023-02-20T22:33:56.639Z,67.53
2023-02-20T22:39:16.702Z,67.40
2023-02-20T22:44:37.056Z,66.89
2023-02-20T22:49:57.030Z,67.11
2023-02-20T22:55:16.995Z,67.30
2023-02-20T23:00:37.789Z,66.83
2023-02-20T23:06:04.959Z,68.32
2023-02-20T23:11:31.902Z,67.69
2023-02-20T23:16:52.372Z,67.13
2023-02-20T23:22:12.764Z,68.67
2023-02-20T23:27:33.192Z,67.49
2023-02-20T23:32:53.663Z,68.00
2023-02-20T23:38:13.898Z,68.27
2023-02-20T23:43:34.142Z,67.20
2023-02-20T23:48:54.678Z,67.86
2023-02-20T23:54:15.158Z,68.05
2023-02-20T23:59:35.572Z,68.57
